createdAt,value
2019-04-01T00:00:26.079Z,93.90
2019-04-01T00:02:55.326Z,94.10
2019-04-01T00:05:24.563Z,94.10
2019-04-01T00:07:53.793Z,94.20
2019-04-01T00:10:23.047Z,94.30
2019-04-01T00:12:52.283Z,94.30
2019-04-01T00:15:21.538Z,94.40
2019-04-01T00:17:50.788Z,94.80
2019-04-01T00:20:20.024Z,94.50
2019-04-01T00:22:49.413Z,94.60
2019-04-01T00:25:18.814Z,95.00
2019-04-01T00:27:48.130Z,95.10
2019-04-01T00:30:17.445Z,95.30
2019-04-01T00:32:46.695Z,95.40
2019-04-01T00:35:15.993Z,95.60
2019-04-01T00:37:45.379Z,95.40
2019-04-01T00:40:14.687Z,96.00
2019-04-01T00:42:45.578Z,95.70
2019-04-01T00:45:19.503Z,95.80
2019-04-01T00:47:48.765Z,95.90
2019-04-01T00:50:18.092Z,96.20
2019-04-01T00:52:47.465Z,96.20
2019-04-01T00:55:27.163Z,96.20
2019-04-01T00:58:16.136Z,96.20
2019-04-01T01:00:45.383Z,96.20
2019-04-01T01:03:14.636Z,96.20
2019-04-01T01:05:43.871Z,96.00
2019-04-01T01:08:13.214Z,96.20
2019-04-01T01:10:42.485Z,96.30
2019-04-01T01:13:11.808Z,96.40
2019-04-01T01:15:41.150Z,96.60
2019-04-01T01:18:10.441Z,96.60
2019-04-01T01:20:39.725Z,96.70
2019-04-01T01:23:08.949Z,96.70
2019-04-01T01:25:38.198Z,96.70
2019-04-01T01:28:07.480Z,96.70
2019-04-01T01:30:37.070Z,96.90
2019-04-01T01:33:06.661Z,96.90
2019-04-01T01:35:36.008Z,96.90
2019-04-01T01:38:05.588Z,97.00
2019-04-01T01:40:35.118Z,97.00
2019-04-01T01:43:04.701Z,97.10
2019-04-01T01:45:34.212Z,97.10
2019-04-01T01:48:03.722Z,97.20
2019-04-01T01:50:33.235Z,97.20
2019-04-01T01:53:02.662Z,97.40
2019-04-01T01:55:32.221Z,97.30
2019-04-01T01:58:01.744Z,97.60
2019-04-01T02:00:31.840Z,97.60
2019-04-01T02:03:01.100Z,97.60
2019-04-01T02:05:30.406Z,97.70
2019-04-01T02:07:59.720Z,97.70
2019-04-01T02:10:29.024Z,97.80
2019-04-01T02:12:58.248Z,97.90
2019-04-01T02:15:27.500Z,97.90
2019-04-01T02:17:56.744Z,97.80
2019-04-01T02:20:26.070Z,98.00
2019-04-01T02:22:55.299Z,98.00
2019-04-01T02:25:24.546Z,98.00
2019-04-01T02:27:53.782Z,98.00
2019-04-01T02:30:23.039Z,98.00
2019-04-01T02:32:52.357Z,98.00
2019-04-01T02:35:21.604Z,98.10
2019-04-01T02:37:50.870Z,98.20
2019-04-01T02:40:22.116Z,98.20
2019-04-01T02:42:51.221Z,98.40
2019-04-01T02:45:20.451Z,98.40
2019-04-01T02:47:49.674Z,98.30
2019-04-01T02:50:18.933Z,98.30
2019-04-01T02:52:48.195Z,98.40
2019-04-01T02:55:17.427Z,98.30
2019-04-01T02:57:46.689Z,98.40
2019-04-01T03:00:17.049Z,98.40
2019-04-01T03:02:46.391Z,98.50
2019-04-01T03:05:15.714Z,98.50
2019-04-01T03:07:44.980Z,98.50
2019-04-01T03:10:14.521Z,98.80
2019-04-01T03:12:43.812Z,98.70
2019-04-01T03:15:13.107Z,98.50
2019-04-01T03:17:42.359Z,98.60
2019-04-01T03:20:11.728Z,98.70
2019-04-01T03:22:40.953Z,98.60
2019-04-01T03:25:10.263Z,98.70
2019-04-01T03:27:39.502Z,98.70
2019-04-01T03:30:08.868Z,98.90
2019-04-01T03:32:44.295Z,98.90
2019-04-01T03:35:09.178Z,98.90
2019-04-01T03:37:38.440Z,98.80
2019-04-01T03:40:08.329Z,99.00
2019-04-01T03:42:37.555Z,98.90
2019-04-01T03:45:07.229Z,99.10
2019-04-01T03:47:36.559Z,99.10
2019-04-01T03:50:06.030Z,99.20
2019-04-01T03:52:35.257Z,99.00
2019-04-01T03:55:05.154Z,98.90
2019-04-01T03:57:34.421Z,98.90
2019-04-01T04:00:06.457Z,98.80
2019-04-01T04:02:35.709Z,99.00
2019-04-01T04:05:06.567Z,98.80
2019-04-01T04:07:35.877Z,98.80
2019-04-01T04:10:07.111Z,98.80
2019-04-01T04:12:36.364Z,99.00
2019-04-01T04:15:06.441Z,98.90
2019-04-01T04:17:35.711Z,99.00
2019-04-01T04:20:05.600Z,98.90
2019-04-01T04:22:34.909Z,98.90
2019-04-01T04:25:05.869Z,98.80
2019-04-01T04:27:35.141Z,98.80
2019-04-01T04:30:06.518Z,98.70
2019-04-01T04:32:35.775Z,98.70
2019-04-01T04:35:05.858Z,98.60
2019-04-01T04:37:35.997Z,98.60
2019-04-01T04:40:07.912Z,98.80
2019-04-01T04:42:37.137Z,98.70
2019-04-01T04:45:07.481Z,98.70
2019-04-01T04:47:36.739Z,98.70
2019-04-01T04:50:06.420Z,98.70
2019-04-01T04:52:35.658Z,98.50
2019-04-01T04:55:05.954Z,98.60
2019-04-01T04:57:35.449Z,98.60
2019-04-01T05:00:06.813Z,98.40
2019-04-01T05:02:36.138Z,98.30
2019-04-01T05:05:06.844Z,98.20
2019-04-01T05:07:36.223Z,97.80
2019-04-01T05:10:07.997Z,97.90
2019-04-01T05:12:37.229Z,97.90
2019-04-01T05:15:07.428Z,98.00
2019-04-01T05:17:36.668Z,97.90
2019-04-01T05:20:06.221Z,98.00
2019-04-01T05:22:35.964Z,97.80
2019-04-01T05:25:05.673Z,97.60
2019-04-01T05:27:37.224Z,97.60
2019-04-01T05:30:07.085Z,97.60
2019-04-01T05:32:37.565Z,97.40
2019-04-01T05:35:08.055Z,97.30
2019-04-01T05:37:37.737Z,97.20
2019-04-01T05:40:07.511Z,97.00
2019-04-01T05:42:36.905Z,97.20
2019-04-01T05:45:07.665Z,96.90
2019-04-01T05:47:38.792Z,96.90
2019-04-01T05:50:08.760Z,96.70
2019-04-01T05:52:38.160Z,96.70
2019-04-01T05:55:09.101Z,96.60
2019-04-01T05:57:39.217Z,96.50
2019-04-01T06:00:10.697Z,96.40
2019-04-01T06:02:40.004Z,96.30
2019-04-01T06:05:09.604Z,96.20
2019-04-01T06:07:39.079Z,96.00
2019-04-01T06:10:08.736Z,96.00
2019-04-01T06:12:38.111Z,95.80
2019-04-01T06:15:07.736Z,95.60
2019-04-01T06:17:37.043Z,95.40
2019-04-01T06:20:07.315Z,95.30
2019-04-01T06:22:36.553Z,95.20
2019-04-01T06:25:07.033Z,95.00
2019-04-01T06:27:36.302Z,95.00
2019-04-01T06:30:07.260Z,94.60
2019-04-01T06:32:36.680Z,94.60
2019-04-01T06:35:06.561Z,94.30
2019-04-01T06:37:35.804Z,94.10
2019-04-01T06:40:07.550Z,93.80
2019-04-01T06:42:36.934Z,93.70
2019-04-01T06:45:07.301Z,93.40
2019-04-01T06:47:36.566Z,93.20
2019-04-01T06:50:06.457Z,93.00
2019-04-01T06:52:35.791Z,92.80
2019-04-01T06:55:06.644Z,92.40
2019-04-01T06:57:35.897Z,91.80
2019-04-01T07:00:05.865Z,91.20
2019-04-01T07:02:35.175Z,90.70
2019-04-01T07:05:06.059Z,90.10
2019-04-01T07:07:35.303Z,89.70
2019-04-01T07:10:05.115Z,89.20
2019-04-01T07:12:34.467Z,88.50
2019-04-01T07:15:05.718Z,88.20
2019-04-01T07:17:34.912Z,88.80
2019-04-01T07:20:08.501Z,87.70
2019-04-01T07:22:36.567Z,87.40
2019-04-01T07:25:05.901Z,87.20
2019-04-01T07:27:35.461Z,87.00
2019-04-01T07:30:05.928Z,86.90
2019-04-01T07:32:35.145Z,86.60
2019-04-01T07:35:05.320Z,86.30
2019-04-01T07:37:34.947Z,86.10
2019-04-01T07:40:05.563Z,85.70
2019-04-01T07:42:35.115Z,85.00
2019-04-01T07:45:06.526Z,84.20
2019-04-01T07:47:35.843Z,84.20
2019-04-01T07:50:06.256Z,83.70
2019-04-01T07:52:35.540Z,82.70
2019-04-01T07:55:06.633Z,82.50
2019-04-01T07:57:35.923Z,81.50
2019-04-01T08:00:08.405Z,80.90
2019-04-01T08:02:37.679Z,80.40
2019-04-01T08:05:07.385Z,80.00
2019-04-01T08:07:36.620Z,79.90
2019-04-01T08:10:07.589Z,79.50
2019-04-01T08:12:36.830Z,79.60
2019-04-01T08:15:09.179Z,78.30
2019-04-01T08:17:38.513Z,78.00
2019-04-01T08:20:08.200Z,77.70
2019-04-01T08:22:37.431Z,77.80
2019-04-01T08:25:07.260Z,75.70
2019-04-01T08:27:37.079Z,75.70
2019-04-01T08:30:08.072Z,74.10
2019-04-01T08:32:37.455Z,74.10
2019-04-01T08:35:07.943Z,74.10
2019-04-01T08:37:40.024Z,74.10
2019-04-01T08:40:08.497Z,73.60
2019-04-01T08:42:37.980Z,73.70
2019-04-01T08:45:08.931Z,73.70
2019-04-01T08:47:38.316Z,73.20
2019-04-01T08:50:08.984Z,72.80
2019-04-01T08:52:38.286Z,72.60
2019-04-01T08:55:07.713Z,72.70
2019-04-01T08:57:37.006Z,72.60
2019-04-01T09:00:08.633Z,71.40
2019-04-01T09:02:38.025Z,70.60
2019-04-01T09:05:07.706Z,70.60
2019-04-01T09:07:36.976Z,70.00
2019-04-01T09:10:07.148Z,70.00
2019-04-01T09:12:36.523Z,69.90
2019-04-01T09:15:06.224Z,70.10
2019-04-01T09:17:35.465Z,69.10
2019-04-01T09:20:05.547Z,68.80
2019-04-01T09:22:34.791Z,68.30
2019-04-01T09:25:05.959Z,68.10
2019-04-01T09:27:35.252Z,68.00
2019-04-01T09:30:06.539Z,68.10
2019-04-01T09:32:35.841Z,68.30
2019-04-01T09:35:08.109Z,68.50
2019-04-01T09:37:37.377Z,67.30
2019-04-01T09:40:10.821Z,67.00
2019-04-01T09:42:40.051Z,66.30
2019-04-01T09:45:10.022Z,66.10
2019-04-01T09:47:39.281Z,65.80
2019-04-01T09:50:08.746Z,65.60
2019-04-01T09:52:38.021Z,65.70
2019-04-01T09:55:07.815Z,65.70
2019-04-01T09:57:37.117Z,65.40
2019-04-01T10:00:08.969Z,65.10
2019-04-01T10:02:38.244Z,64.90
2019-04-01T10:05:08.107Z,64.30
2019-04-01T10:07:37.438Z,64.50
2019-04-01T10:10:07.133Z,64.90
2019-04-01T10:12:36.361Z,65.00
2019-04-01T10:15:07.533Z,65.00
2019-04-01T10:17:36.856Z,64.60
2019-04-01T10:20:08.224Z,64.30
2019-04-01T10:22:37.465Z,64.10
2019-04-01T10:25:06.940Z,64.40
2019-04-01T10:27:36.337Z,64.30
2019-04-01T10:30:08.096Z,63.50
2019-04-01T10:32:37.358Z,64.40
2019-04-01T10:35:07.832Z,63.60
2019-04-01T10:37:37.148Z,63.40
2019-04-01T10:40:07.716Z,63.30
2019-04-01T10:42:37.056Z,63.10
2019-04-01T10:45:09.309Z,63.00
2019-04-01T10:47:38.707Z,63.10
2019-04-01T10:50:08.625Z,63.30
2019-04-01T10:52:38.045Z,62.90
2019-04-01T10:55:07.806Z,62.90
2019-04-01T10:57:37.091Z,62.70
2019-04-01T11:00:09.757Z,62.30
2019-04-01T11:02:39.320Z,60.90
2019-04-01T11:05:09.043Z,60.60
2019-04-01T11:07:38.492Z,59.80
2019-04-01T11:10:11.460Z,59.40
2019-04-01T11:12:39.656Z,59.10
2019-04-01T11:15:09.443Z,58.90
2019-04-01T11:17:38.688Z,59.30
2019-04-01T11:20:09.486Z,59.10
2019-04-01T11:22:38.725Z,59.20
2019-04-01T11:25:08.829Z,58.90
2019-04-01T11:27:38.289Z,58.90
2019-04-01T11:30:08.797Z,58.80
2019-04-01T11:32:38.410Z,58.40
2019-04-01T11:35:08.539Z,57.90
2019-04-01T11:37:37.950Z,57.00
2019-04-01T11:40:11.124Z,57.10
2019-04-01T11:42:40.347Z,57.30
2019-04-01T11:45:09.787Z,57.10
2019-04-01T11:47:39.092Z,57.10
2019-04-01T11:50:08.946Z,57.20
2019-04-01T11:52:38.551Z,56.90
2019-04-01T11:55:09.067Z,56.30
2019-04-01T11:57:40.552Z,56.40
2019-04-01T12:00:16.104Z,56.60
2019-04-01T12:02:46.160Z,56.20
2019-04-01T12:05:15.575Z,56.20
2019-04-01T12:07:44.824Z,55.90
2019-04-01T12:10:14.231Z,55.80
2019-04-01T12:12:43.481Z,55.90
2019-04-01T12:15:13.467Z,55.60
2019-04-01T12:17:42.798Z,55.40
2019-04-01T12:20:12.285Z,55.00
2019-04-01T12:22:45.464Z,55.10
2019-04-01T12:25:12.503Z,55.20
2019-04-01T12:27:41.733Z,55.20
2019-04-01T12:30:11.453Z,55.20
2019-04-01T12:32:40.888Z,54.90
2019-04-01T12:35:10.175Z,54.80
2019-04-01T12:37:39.423Z,54.70
2019-04-01T12:40:09.804Z,54.60
2019-04-01T12:42:39.062Z,54.70
2019-04-01T12:45:08.570Z,54.40
2019-04-01T12:47:37.933Z,54.50
2019-04-01T12:50:08.221Z,54.10
2019-04-01T12:52:37.473Z,54.00
2019-04-01T12:55:07.629Z,54.10
2019-04-01T12:57:36.893Z,53.90
2019-04-01T13:00:09.960Z,53.80
2019-04-01T13:02:39.317Z,53.40
2019-04-01T13:05:08.746Z,53.60
2019-04-01T13:07:37.992Z,53.40
2019-04-01T13:10:07.595Z,53.50
2019-04-01T13:12:36.816Z,53.10
2019-04-01T13:15:06.290Z,53.20
2019-04-01T13:17:35.510Z,53.50
2019-04-01T13:20:05.979Z,54.00
2019-04-01T13:22:35.393Z,52.70
2019-04-01T13:25:05.848Z,52.50
2019-04-01T13:27:35.250Z,52.30
2019-04-01T13:30:06.319Z,52.30
2019-04-01T13:32:35.652Z,52.80
2019-04-01T13:35:06.426Z,52.20
2019-04-01T13:37:35.672Z,52.00
2019-04-01T13:40:06.148Z,52.10
2019-04-01T13:42:35.433Z,52.30
2019-04-01T13:45:06.027Z,52.30
2019-04-01T13:47:35.364Z,52.10
2019-04-01T13:50:06.340Z,51.50
2019-04-01T13:52:35.600Z,51.00
2019-04-01T13:55:05.689Z,50.80
2019-04-01T13:57:35.267Z,51.10
2019-04-01T14:00:06.608Z,51.10
2019-04-01T14:02:37.602Z,50.80
2019-04-01T14:05:07.357Z,50.50
2019-04-01T14:07:36.638Z,50.40
2019-04-01T14:10:07.543Z,50.60
2019-04-01T14:12:36.786Z,50.80
2019-04-01T14:15:07.464Z,50.70
2019-04-01T14:17:36.706Z,50.70
2019-04-01T14:20:06.711Z,50.80
2019-04-01T14:22:36.036Z,51.60
2019-04-01T14:25:07.509Z,51.00
2019-04-01T14:27:36.908Z,50.90
2019-04-01T14:30:07.412Z,51.10
2019-04-01T14:32:36.746Z,51.00
2019-04-01T14:35:07.438Z,50.80
2019-04-01T14:37:36.670Z,50.60
2019-04-01T14:40:08.567Z,50.60
2019-04-01T14:42:39.643Z,50.10
2019-04-01T14:45:09.876Z,49.60
2019-04-01T14:47:56.019Z,49.50
2019-04-01T14:50:10.481Z,49.40
2019-04-01T14:52:41.005Z,49.30
2019-04-01T14:55:10.871Z,49.30
2019-04-01T14:57:40.224Z,49.30
2019-04-01T15:00:12.573Z,49.20
2019-04-01T15:02:41.917Z,49.20
2019-04-01T15:05:11.472Z,49.00
2019-04-01T15:07:40.716Z,48.80
2019-04-01T15:10:10.497Z,48.80
2019-04-01T15:12:39.910Z,48.80
2019-04-01T15:15:09.720Z,48.70
2019-04-01T15:17:39.036Z,48.50
2019-04-01T15:20:08.625Z,48.40
2019-04-01T15:22:37.884Z,48.40
2019-04-01T15:25:07.652Z,48.60
2019-04-01T15:27:36.972Z,48.50
2019-04-01T15:30:08.251Z,48.30
2019-04-01T15:32:37.505Z,48.40
2019-04-01T15:35:07.628Z,48.30
2019-04-01T15:37:36.874Z,48.30
2019-04-01T15:40:08.145Z,48.30
2019-04-01T15:42:37.459Z,48.00
2019-04-01T15:45:07.054Z,47.00
2019-04-01T15:47:36.467Z,46.10
2019-04-01T15:50:07.003Z,45.40
2019-04-01T15:52:36.339Z,44.40
2019-04-01T15:55:08.665Z,43.90
2019-04-01T15:57:37.994Z,42.10
2019-04-01T16:00:07.843Z,38.80
2019-04-01T16:02:37.141Z,35.20
2019-04-01T16:05:07.513Z,34.00
2019-04-01T16:07:36.741Z,33.70
2019-04-01T16:10:09.267Z,33.80
2019-04-01T16:12:38.517Z,34.80
2019-04-01T16:15:09.063Z,35.70
2019-04-01T16:17:38.585Z,36.10
2019-04-01T16:20:08.367Z,36.60
2019-04-01T16:22:37.617Z,38.30
2019-04-01T16:25:07.513Z,39.00
2019-04-01T16:27:36.753Z,39.30
2019-04-01T16:30:08.087Z,40.40
2019-04-01T16:32:38.227Z,41.60
2019-04-01T16:35:08.006Z,42.80
2019-04-01T16:37:37.256Z,44.10
2019-04-01T16:40:07.005Z,44.80
2019-04-01T16:42:36.241Z,45.50
2019-04-01T16:45:07.712Z,46.10
2019-04-01T16:47:37.081Z,46.50
2019-04-01T16:50:09.569Z,47.00
2019-04-01T16:52:38.913Z,47.40
2019-04-01T16:55:10.705Z,47.80
2019-04-01T16:57:40.049Z,48.20
2019-04-01T17:00:14.605Z,48.40
2019-04-01T17:02:42.839Z,48.60
2019-04-01T17:05:12.333Z,48.90
2019-04-01T17:07:41.637Z,49.10
2019-04-01T17:10:13.955Z,49.30
2019-04-01T17:12:43.296Z,49.60
2019-04-01T17:15:12.729Z,49.90
2019-04-01T17:17:42.041Z,50.10
2019-04-01T17:20:11.575Z,50.50
2019-04-01T17:22:40.823Z,50.80
2019-04-01T17:25:10.239Z,51.10
2019-04-01T17:27:39.536Z,51.70
2019-04-01T17:30:10.102Z,51.40
2019-04-01T17:32:39.439Z,51.40
2019-04-01T17:35:09.027Z,51.90
2019-04-01T17:37:38.452Z,52.30
2019-04-01T17:40:09.375Z,52.70
2019-04-01T17:42:39.401Z,52.80
2019-04-01T17:45:23.911Z,53.40
2019-04-01T17:47:53.248Z,52.90
2019-04-01T17:50:22.555Z,53.10
2019-04-01T17:52:51.781Z,53.20
2019-04-01T17:55:21.039Z,53.30
2019-04-01T17:57:50.354Z,53.50
2019-04-01T18:00:24.539Z,53.80
2019-04-01T18:02:53.855Z,54.10
2019-04-01T18:05:23.364Z,54.50
2019-04-01T18:07:52.666Z,54.60
2019-04-01T18:10:28.127Z,54.60
2019-04-01T18:12:56.007Z,54.50
2019-04-01T18:15:25.359Z,54.60
2019-04-01T18:17:59.941Z,54.80
2019-04-01T18:20:29.261Z,54.80
2019-04-01T18:22:58.489Z,55.10
2019-04-01T18:25:27.790Z,55.60
2019-04-01T18:27:57.227Z,55.70
2019-04-01T18:30:31.215Z,56.00
2019-04-01T18:33:04.553Z,56.20
2019-04-01T18:35:39.573Z,56.30
2019-04-01T18:38:08.813Z,56.30
2019-04-01T18:40:38.069Z,56.30
2019-04-01T18:43:07.431Z,56.60
2019-04-01T18:45:36.675Z,57.00
2019-04-01T18:48:05.934Z,57.00
2019-04-01T18:50:35.220Z,57.90
2019-04-01T18:53:04.541Z,57.70
2019-04-01T18:55:34.155Z,57.70
2019-04-01T18:58:03.457Z,57.70
2019-04-01T19:00:32.830Z,58.40
2019-04-01T19:03:02.104Z,57.70
2019-04-01T19:05:31.520Z,57.60
2019-04-01T19:08:00.823Z,57.60
2019-04-01T19:10:30.052Z,57.80
2019-04-01T19:13:06.126Z,57.90
2019-04-01T19:15:31.871Z,57.90
2019-04-01T19:18:01.942Z,57.90
2019-04-01T19:20:31.291Z,57.90
2019-04-01T19:23:01.995Z,57.90
2019-04-01T19:25:31.538Z,58.00
2019-04-01T19:28:00.795Z,58.30
2019-04-01T19:30:30.064Z,58.60
2019-04-01T19:33:00.062Z,58.60
2019-04-01T19:35:29.330Z,59.30
2019-04-01T19:37:58.572Z,58.60
2019-04-01T19:40:27.828Z,58.50
2019-04-01T19:42:57.225Z,58.50
2019-04-01T19:45:26.592Z,58.70
2019-04-01T19:47:57.365Z,58.90
2019-04-01T19:50:26.796Z,58.80
2019-04-01T19:52:56.030Z,58.60
2019-04-01T19:55:25.333Z,58.70
2019-04-01T19:57:56.117Z,58.70
2019-04-01T20:00:28.060Z,58.70
2019-04-01T20:02:56.893Z,58.70
2019-04-01T20:05:26.235Z,58.50
2019-04-01T20:07:55.505Z,58.60
2019-04-01T20:10:24.787Z,58.60
2019-04-01T20:12:54.028Z,58.80
2019-04-01T20:15:24.230Z,58.60
2019-04-01T20:17:53.533Z,58.50
2019-04-01T20:20:22.932Z,58.50
2019-04-01T20:22:53.934Z,58.40
2019-04-01T20:25:23.451Z,58.40
2019-04-01T20:27:52.778Z,58.50
2019-04-01T20:30:22.721Z,58.30
2019-04-01T20:32:52.025Z,58.30
2019-04-01T20:35:23.570Z,58.40
2019-04-01T20:37:52.383Z,58.00
2019-04-01T20:40:21.816Z,57.70
2019-04-01T20:42:51.078Z,57.60
2019-04-01T20:45:20.464Z,58.00
2019-04-01T20:47:50.412Z,57.50
2019-04-01T20:50:20.881Z,57.50
2019-04-01T20:52:50.584Z,57.30
2019-04-01T20:55:20.121Z,57.10
2019-04-01T20:57:49.556Z,57.10
2019-04-01T21:00:19.040Z,57.00
2019-04-01T21:02:48.377Z,56.90
2019-04-01T21:05:17.970Z,56.70
2019-04-01T21:07:47.527Z,56.40
2019-04-01T21:10:17.190Z,56.60
2019-04-01T21:12:46.437Z,56.50
2019-04-01T21:15:16.233Z,56.50
2019-04-01T21:17:45.473Z,56.40
2019-04-01T21:20:14.899Z,56.50
2019-04-01T21:22:44.155Z,56.30
2019-04-01T21:25:13.838Z,56.30
2019-04-01T21:27:43.090Z,56.40
2019-04-01T21:30:12.589Z,56.40
2019-04-01T21:32:41.837Z,56.30
2019-04-01T21:35:11.138Z,56.00
2019-04-01T21:37:40.387Z,56.00
2019-04-01T21:40:10.021Z,56.00
2019-04-01T21:42:39.289Z,55.90
2019-04-01T21:45:08.945Z,55.80
2019-04-01T21:47:38.299Z,55.80
2019-04-01T21:50:07.886Z,55.70
2019-04-01T21:52:37.201Z,55.50
2019-04-01T21:55:08.364Z,55.60
2019-04-01T21:57:37.835Z,55.60
2019-04-01T22:00:14.206Z,56.40
2019-04-01T22:02:44.487Z,55.90
2019-04-01T22:05:13.949Z,55.90
2019-04-01T22:07:43.195Z,56.00
2019-04-01T22:10:13.788Z,56.10
2019-04-01T22:12:43.033Z,56.00
2019-04-01T22:15:12.529Z,56.10
2019-04-01T22:17:41.780Z,56.20
2019-04-01T22:20:11.197Z,56.20
2019-04-01T22:22:40.456Z,56.40
2019-04-01T22:25:10.655Z,56.20
2019-04-01T22:27:39.890Z,56.40
2019-04-01T22:30:10.508Z,56.50
2019-04-01T22:32:41.232Z,56.40
2019-04-01T22:35:11.578Z,56.50
2019-04-01T22:37:40.959Z,56.60
2019-04-01T22:40:10.620Z,56.60
2019-04-01T22:42:41.866Z,56.60
2019-04-01T22:45:13.017Z,57.70
2019-04-01T22:47:42.258Z,57.70
2019-04-01T22:50:11.931Z,57.90
2019-04-01T22:52:42.318Z,57.90
2019-04-01T22:55:11.818Z,58.20
2019-04-01T22:57:43.314Z,58.50
2019-04-01T23:00:14.317Z,59.30
2019-04-01T23:02:43.610Z,59.50
2019-04-01T23:05:13.006Z,59.80
2019-04-01T23:07:42.348Z,59.80
2019-04-01T23:10:11.788Z,60.00
2019-04-01T23:12:41.160Z,60.60
2019-04-01T23:15:15.361Z,61.30
2019-04-01T23:17:45.472Z,61.30
2019-04-01T23:20:14.787Z,61.70
2019-04-01T23:22:44.102Z,61.90
2019-04-01T23:25:14.966Z,61.90
2019-04-01T23:27:45.088Z,62.20
2019-04-01T23:30:21.854Z,62.60
2019-04-01T23:32:51.212Z,62.30
2019-04-01T23:35:20.448Z,62.50
2019-04-01T23:37:49.695Z,62.30
2019-04-01T23:40:21.394Z,61.60
2019-04-01T23:42:52.025Z,61.40
2019-04-01T23:45:21.547Z,61.30
2019-04-01T23:47:50.771Z,61.30
2019-04-01T23:50:20.008Z,61.70
2019-04-01T23:52:49.269Z,61.50
2019-04-01T23:55:19.105Z,61.70
2019-04-01T23:57:48.442Z,61.30
